createdAt,value
2019-03-02T00:02:28.732Z,17.60
2019-03-02T00:04:59.706Z,16.93
2019-03-02T00:07:30.579Z,23.33
2019-03-02T00:10:01.454Z,19.07
2019-03-02T00:12:32.942Z,19.97
2019-03-02T00:15:05.594Z,19.50
2019-03-02T00:17:36.647Z,17.63
2019-03-02T00:20:07.715Z,17.37
2019-03-02T00:22:39.667Z,17.63
2019-03-02T00:25:11.081Z,19.77
2019-03-02T00:27:42.005Z,18.83
2019-03-02T00:30:13.215Z,18.53
2019-03-02T00:32:45.096Z,20.40
2019-03-02T00:35:16.470Z,19.37
2019-03-02T00:37:47.326Z,19.77
2019-03-02T00:40:18.211Z,17.27
2019-03-02T00:42:51.881Z,20.33
2019-03-02T00:45:21.539Z,17.17
2019-03-02T00:47:52.347Z,18.43
2019-03-02T00:50:23.228Z,16.70
2019-03-02T00:52:55.662Z,20.30
2019-03-02T00:55:28.519Z,15.87
2019-03-02T00:57:59.147Z,21.00
2019-03-02T01:00:30.056Z,20.57
2019-03-02T01:03:00.958Z,16.23
2019-03-02T01:05:33.483Z,16.10
2019-03-02T01:08:05.491Z,18.40
2019-03-02T01:10:36.422Z,17.63
2019-03-02T01:13:07.365Z,13.47
2019-03-02T01:15:40.615Z,16.13
2019-03-02T01:18:10.706Z,13.77
2019-03-02T01:20:41.583Z,15.33
2019-03-02T01:23:12.371Z,14.43
2019-03-02T01:25:45.507Z,14.47
2019-03-02T01:28:15.742Z,15.30
2019-03-02T01:30:46.638Z,12.17
2019-03-02T01:33:18.020Z,14.47
2019-03-02T01:35:48.784Z,14.33
2019-03-02T01:38:19.602Z,15.87
2019-03-02T01:40:50.575Z,14.53
2019-03-02T01:43:21.374Z,16.80
2019-03-02T01:45:52.170Z,12.80
2019-03-02T01:48:26.461Z,14.33
2019-03-02T01:50:55.527Z,12.87
2019-03-02T01:53:26.444Z,14.90
2019-03-02T01:55:57.291Z,15.60
2019-03-02T01:58:28.958Z,15.67
2019-03-02T02:01:01.997Z,13.37
2019-03-02T02:03:33.826Z,17.07
2019-03-02T02:06:07.379Z,13.77
2019-03-02T02:08:37.277Z,15.77
2019-03-02T02:11:08.163Z,14.03
2019-03-02T02:13:42.770Z,16.63
2019-03-02T02:16:11.511Z,12.27
2019-03-02T02:18:42.392Z,15.17
2019-03-02T02:21:13.903Z,13.57
2019-03-02T02:23:45.778Z,13.03
2019-03-02T02:26:17.155Z,11.67
2019-03-02T02:28:47.964Z,11.70
2019-03-02T02:31:18.733Z,11.73
2019-03-02T02:33:50.416Z,12.53
2019-03-02T02:36:22.153Z,11.00
2019-03-02T02:38:54.494Z,13.30
2019-03-02T02:41:25.610Z,15.70
2019-03-02T02:43:59.043Z,13.90
2019-03-02T02:46:32.669Z,15.70
2019-03-02T02:49:05.272Z,11.53
2019-03-02T02:51:33.836Z,12.53
2019-03-02T02:54:04.651Z,15.07
2019-03-02T02:56:35.423Z,14.77
2019-03-02T02:59:06.304Z,10.23
2019-03-02T03:01:37.071Z,10.73
2019-03-02T03:04:08.921Z,13.83
2019-03-02T03:06:40.879Z,12.77
2019-03-02T03:09:36.830Z,13.80
2019-03-02T03:12:07.719Z,10.23
2019-03-02T03:14:40.182Z,12.43
2019-03-02T03:17:10.970Z,14.87
2019-03-02T03:19:41.754Z,14.40
2019-03-02T03:22:12.540Z,12.53
2019-03-02T03:24:43.399Z,16.80
2019-03-02T03:27:14.745Z,14.37
2019-03-02T03:29:49.361Z,14.57
2019-03-02T03:32:19.348Z,12.97
2019-03-02T03:34:50.477Z,11.50
2019-03-02T03:37:21.326Z,12.83
2019-03-02T03:39:52.579Z,11.47
2019-03-02T03:42:24.718Z,12.07
2019-03-02T03:44:59.863Z,10.10
2019-03-02T03:47:28.277Z,12.40
2019-03-02T03:49:59.278Z,13.20
2019-03-02T03:52:30.075Z,12.93
2019-03-02T03:55:01.070Z,11.10
2019-03-02T03:57:31.916Z,13.47
2019-03-02T04:00:02.741Z,10.93
2019-03-02T04:02:35.345Z,12.20
2019-03-02T04:05:08.523Z,21.07
2019-03-02T04:07:48.495Z,12.60
2019-03-02T04:10:13.609Z,12.53
2019-03-02T04:12:44.450Z,12.27
2019-03-02T04:15:15.448Z,11.57
2019-03-02T04:17:49.174Z,10.27
2019-03-02T04:20:23.941Z,11.47
2019-03-02T04:22:55.132Z,10.60
2019-03-02T04:25:25.965Z,12.30
2019-03-02T04:27:56.842Z,13.43
2019-03-02T04:30:31.241Z,13.33
2019-03-02T04:33:01.870Z,11.20
2019-03-02T04:35:35.176Z,12.37
2019-03-02T04:38:06.111Z,11.70
2019-03-02T04:40:37.051Z,13.70
2019-03-02T04:43:08.995Z,14.90
2019-03-02T04:45:40.534Z,13.70
2019-03-02T04:48:11.524Z,18.03
2019-03-02T04:50:42.319Z,12.80
2019-03-02T04:53:13.083Z,10.93
2019-03-02T04:55:45.705Z,13.80
2019-03-02T04:58:16.382Z,14.27
2019-03-02T05:00:47.265Z,13.47
2019-03-02T05:03:18.030Z,10.33
2019-03-02T05:05:49.776Z,12.87
2019-03-02T05:08:20.593Z,12.93
2019-03-02T05:10:52.471Z,13.10
2019-03-02T05:13:24.704Z,14.53
2019-03-02T05:15:55.739Z,16.17
2019-03-02T05:18:26.519Z,16.07
2019-03-02T05:20:57.308Z,13.57
2019-03-02T05:23:30.547Z,18.40
2019-03-02T05:26:01.545Z,13.63
2019-03-02T05:28:35.455Z,15.30
2019-03-02T05:31:07.576Z,15.60
2019-03-02T05:33:39.498Z,15.83
2019-03-02T05:36:10.754Z,16.37
2019-03-02T05:38:41.619Z,17.30
2019-03-02T05:41:12.504Z,14.70
2019-03-02T05:43:43.285Z,14.40
2019-03-02T05:46:14.110Z,17.57
2019-03-02T05:48:44.899Z,17.30
2019-03-02T05:51:16.680Z,15.27
2019-03-02T05:53:47.471Z,18.37
2019-03-02T05:56:18.273Z,16.60
2019-03-02T05:58:51.113Z,17.97
2019-03-02T06:01:21.638Z,16.20
2019-03-02T06:03:52.472Z,16.10
2019-03-02T06:06:24.263Z,19.27
2019-03-02T06:08:55.178Z,15.73
2019-03-02T06:11:25.986Z,15.47
2019-03-02T06:13:56.802Z,19.73
2019-03-02T06:16:27.620Z,19.73
2019-03-02T06:18:58.455Z,18.07
2019-03-02T06:21:29.273Z,17.43
2019-03-02T06:24:01.601Z,17.73
2019-03-02T06:26:35.391Z,20.07
2019-03-02T06:29:05.143Z,20.97
2019-03-02T06:31:36.053Z,17.53
2019-03-02T06:34:06.921Z,19.80
2019-03-02T06:36:40.880Z,19.60
2019-03-02T06:39:11.667Z,23.57
2019-03-02T06:41:42.485Z,21.03
2019-03-02T06:44:14.388Z,24.63
2019-03-02T06:46:45.310Z,28.47
2019-03-02T06:49:16.749Z,25.03
2019-03-02T06:51:48.696Z,26.47
2019-03-02T06:54:19.529Z,25.20
2019-03-02T06:56:57.555Z,31.13
2019-03-02T06:59:23.091Z,30.43
2019-03-02T07:01:56.530Z,30.67
2019-03-02T07:04:26.998Z,31.87
2019-03-02T07:06:57.932Z,28.83
2019-03-02T07:09:28.862Z,32.03
2019-03-02T07:11:59.741Z,35.90
2019-03-02T07:14:32.374Z,30.73
2019-03-02T07:17:03.611Z,30.37
2019-03-02T07:19:41.516Z,36.70
2019-03-02T07:22:13.623Z,32.30
2019-03-02T07:24:44.870Z,35.73
2019-03-02T07:27:15.688Z,35.50
2019-03-02T07:29:49.798Z,33.00
2019-03-02T07:32:18.997Z,42.13
2019-03-02T07:34:49.809Z,39.83
2019-03-02T07:37:22.131Z,37.37
2019-03-02T07:39:53.023Z,35.87
2019-03-02T07:42:23.898Z,42.70
2019-03-02T07:44:54.936Z,38.87
2019-03-02T07:47:27.309Z,35.90
2019-03-02T07:49:58.139Z,33.70
2019-03-02T07:52:28.951Z,38.20
2019-03-02T07:54:59.852Z,33.90
2019-03-02T07:57:30.803Z,39.80
2019-03-02T08:00:02.102Z,40.03
2019-03-02T08:02:34.510Z,38.37
2019-03-02T08:05:05.938Z,37.17
2019-03-02T08:07:38.097Z,41.67
2019-03-02T08:10:11.132Z,39.20
2019-03-02T08:12:43.002Z,43.33
2019-03-02T08:15:16.390Z,37.40
2019-03-02T08:17:49.127Z,41.47
2019-03-02T08:20:20.811Z,36.13
2019-03-02T08:22:52.864Z,40.13
2019-03-02T08:25:23.796Z,41.60
2019-03-02T08:27:55.859Z,43.50
2019-03-02T08:30:29.957Z,43.17
2019-03-02T08:33:04.183Z,37.17
2019-03-02T08:35:36.604Z,41.23
2019-03-02T08:38:08.950Z,46.17
2019-03-02T08:40:40.131Z,45.50
2019-03-02T08:43:16.485Z,44.77
2019-03-02T08:45:46.162Z,48.93
2019-03-02T08:48:17.083Z,41.33
2019-03-02T08:50:49.726Z,47.17
2019-03-02T08:53:20.619Z,46.23
2019-03-02T08:55:51.548Z,48.47
2019-03-02T08:58:24.053Z,46.97
2019-03-02T09:00:56.745Z,44.30
2019-03-02T09:03:33.766Z,46.00
2019-03-02T09:06:11.265Z,51.77
2019-03-02T09:08:42.163Z,44.97
2019-03-02T09:11:13.162Z,45.50
2019-03-02T09:13:44.102Z,46.70
2019-03-02T09:16:14.926Z,54.80
2019-03-02T09:18:46.853Z,52.93
2019-03-02T09:21:17.826Z,56.13
2019-03-02T09:23:48.834Z,53.20
2019-03-02T09:26:19.740Z,56.63
2019-03-02T09:28:52.020Z,56.30
2019-03-02T09:31:26.364Z,51.10
2019-03-02T09:34:01.029Z,55.13
2019-03-02T09:36:31.254Z,57.20
2019-03-02T09:39:04.304Z,52.40
2019-03-02T09:41:35.850Z,69.80
2019-03-02T09:44:08.368Z,62.80
2019-03-02T09:46:39.266Z,58.07
2019-03-02T09:49:11.053Z,60.70
2019-03-02T09:51:44.751Z,56.03
2019-03-02T09:54:14.504Z,63.20
2019-03-02T09:56:46.335Z,56.53
2019-03-02T09:59:17.156Z,59.40
2019-03-02T10:01:48.187Z,56.07
2019-03-02T10:04:19.115Z,58.17
2019-03-02T10:06:50.501Z,59.90
2019-03-02T10:09:21.909Z,64.47
2019-03-02T10:11:54.204Z,71.23
2019-03-02T10:14:26.760Z,58.87
2019-03-02T10:16:58.871Z,60.03
2019-03-02T10:19:29.826Z,59.13
2019-03-02T10:22:00.906Z,53.60
2019-03-02T10:24:33.359Z,53.33
2019-03-02T10:27:06.108Z,55.43
2019-03-02T10:29:37.026Z,57.60
2019-03-02T10:32:07.853Z,53.47
2019-03-02T10:34:41.826Z,56.83
2019-03-02T10:37:11.307Z,58.13
2019-03-02T10:39:42.210Z,54.80
2019-03-02T10:42:13.178Z,58.67
2019-03-02T10:44:44.250Z,56.53
2019-03-02T10:47:15.243Z,51.13
2019-03-02T10:49:48.425Z,46.47
2019-03-02T10:52:20.211Z,50.40
2019-03-02T10:54:51.050Z,46.97
2019-03-02T10:57:21.896Z,47.17
2019-03-02T10:59:53.180Z,48.73
2019-03-02T11:02:25.829Z,45.83
2019-03-02T11:05:00.517Z,50.43
2019-03-02T11:07:53.363Z,49.63
2019-03-02T11:10:48.698Z,52.77
2019-03-02T11:13:32.753Z,44.03
2019-03-02T11:16:37.750Z,47.13
2019-03-02T11:19:31.019Z,46.43
2019-03-02T11:22:23.745Z,45.20
2019-03-02T11:25:17.070Z,47.27
2019-03-02T11:28:04.535Z,46.30
2019-03-02T11:30:53.246Z,45.20
2019-03-02T11:33:41.960Z,41.10
2019-03-02T11:36:35.686Z,49.60
2019-03-02T11:39:31.591Z,39.30
2019-03-02T11:42:14.829Z,44.00
2019-03-02T11:45:13.494Z,42.37
2019-03-02T11:48:17.286Z,42.27
2019-03-02T11:51:06.966Z,35.43
2019-03-02T11:54:14.660Z,37.13
2019-03-02T11:57:17.758Z,38.47
2019-03-02T12:00:06.901Z,38.23
2019-03-02T12:02:53.329Z,34.60
2019-03-02T12:06:05.139Z,34.27
2019-03-02T12:08:54.817Z,35.73
2019-03-02T12:11:48.915Z,32.80
2019-03-02T12:14:35.968Z,33.30
2019-03-02T12:17:24.800Z,30.50
2019-03-02T12:20:14.784Z,32.93
2019-03-02T12:23:10.551Z,28.53
2019-03-02T12:26:00.069Z,29.37
2019-03-02T12:28:48.666Z,28.30
2019-03-02T12:31:47.550Z,27.63
2019-03-02T12:34:41.585Z,31.27
2019-03-02T12:37:28.558Z,31.83
2019-03-02T12:40:19.679Z,25.83
2019-03-02T12:43:18.750Z,23.70
2019-03-02T12:46:12.922Z,25.50
2019-03-02T12:49:12.244Z,26.43
2019-03-02T12:52:05.093Z,24.87
2019-03-02T12:54:53.709Z,28.70
2019-03-02T12:57:36.823Z,21.33
2019-03-02T13:00:23.918Z,22.13
2019-03-02T13:03:12.299Z,22.80
2019-03-02T13:06:00.904Z,21.10
2019-03-02T13:08:49.636Z,19.93
2019-03-02T13:11:37.670Z,24.87
2019-03-02T13:14:28.916Z,19.80
2019-03-02T13:17:22.488Z,22.07
2019-03-02T13:20:09.019Z,19.03
2019-03-02T13:23:08.017Z,21.97
2019-03-02T13:26:00.735Z,23.73
2019-03-02T13:28:37.017Z,21.67
2019-03-02T13:31:40.066Z,21.80
2019-03-02T13:34:27.483Z,20.23
2019-03-02T13:37:04.997Z,18.70
2019-03-02T13:39:54.755Z,21.67
2019-03-02T13:42:38.323Z,15.90
2019-03-02T13:45:40.903Z,18.40
2019-03-02T13:48:29.643Z,22.57
2019-03-02T13:51:25.919Z,19.37
2019-03-02T13:54:14.788Z,15.67
2019-03-02T13:57:19.748Z,16.37
2019-03-02T14:00:18.599Z,17.53
2019-03-02T14:03:20.467Z,16.27
2019-03-02T14:06:14.281Z,24.10
2019-03-02T14:09:16.196Z,19.23
2019-03-02T14:12:05.703Z,17.93
2019-03-02T14:14:55.318Z,18.83
2019-03-02T14:17:48.028Z,21.03
2019-03-02T14:20:28.048Z,25.80
2019-03-02T14:23:26.331Z,19.03
2019-03-02T14:26:15.191Z,20.90
2019-03-02T14:29:08.146Z,19.63
2019-03-02T14:31:53.487Z,22.27
2019-03-02T14:35:01.787Z,21.93
2019-03-02T14:37:57.247Z,18.63
2019-03-02T14:40:59.332Z,20.93
2019-03-02T14:43:40.057Z,20.47
2019-03-02T14:46:32.597Z,21.37
2019-03-02T14:49:24.380Z,19.77
2019-03-02T14:52:20.323Z,22.97
2019-03-02T14:55:09.090Z,18.40
2019-03-02T14:58:08.201Z,20.53
2019-03-02T15:01:02.756Z,23.70
2019-03-02T15:04:06.089Z,28.03
2019-03-02T15:07:18.403Z,22.07
2019-03-02T15:10:06.353Z,21.53
2019-03-02T15:12:52.346Z,20.97
2019-03-02T15:15:28.639Z,21.37
2019-03-02T15:18:14.273Z,19.98
2019-03-02T15:21:11.440Z,20.80
2019-03-02T15:23:55.363Z,23.50
2019-03-02T15:26:31.851Z,21.07
2019-03-02T15:29:20.557Z,17.97
2019-03-02T15:32:19.969Z,23.27
2019-03-02T15:35:13.360Z,20.03
2019-03-02T15:38:12.207Z,19.90
2019-03-02T15:40:51.318Z,24.40
2019-03-02T15:43:43.923Z,19.27
2019-03-02T15:46:37.115Z,21.40
2019-03-02T15:49:42.505Z,18.57
2019-03-02T15:52:26.871Z,24.77
2019-03-02T15:55:15.676Z,24.40
2019-03-02T15:58:05.007Z,16.10
2019-03-02T16:00:58.086Z,18.37
2019-03-02T16:03:47.680Z,17.90
2019-03-02T16:06:29.998Z,17.53
2019-03-02T16:09:18.641Z,18.47
2019-03-02T16:12:08.363Z,19.23
2019-03-02T16:14:51.822Z,17.60
2019-03-02T16:18:00.127Z,18.13
2019-03-02T16:20:42.501Z,23.70
2019-03-02T16:23:24.347Z,17.70
2019-03-02T16:26:07.411Z,15.83
2019-03-02T16:28:47.494Z,13.07
2019-03-02T16:31:52.678Z,16.80
2019-03-02T16:34:43.987Z,13.63
2019-03-02T16:37:41.330Z,18.63
2019-03-02T16:40:37.224Z,17.97
2019-03-02T16:43:30.926Z,17.43
2019-03-02T16:46:07.709Z,19.50
2019-03-02T16:48:46.299Z,14.27
2019-03-02T16:51:26.084Z,15.43
2019-03-02T16:54:17.344Z,16.73
2019-03-02T16:56:59.135Z,16.17
2019-03-02T16:59:55.313Z,11.63
2019-03-02T17:02:48.479Z,13.40
2019-03-02T17:05:28.288Z,13.37
2019-03-02T17:08:20.242Z,17.83
2019-03-02T17:11:01.041Z,19.33
2019-03-02T17:13:51.029Z,16.83
2019-03-02T17:16:56.301Z,18.83
2019-03-02T17:19:46.215Z,23.10
2019-03-02T17:22:22.470Z,25.77
2019-03-02T17:25:10.995Z,26.43
2019-03-02T17:28:03.707Z,32.63
2019-03-02T17:30:42.360Z,30.63
2019-03-02T17:33:18.416Z,29.33
2019-03-02T17:35:57.180Z,33.17
2019-03-02T17:38:55.847Z,36.50
2019-03-02T17:41:47.631Z,38.97
2019-03-02T17:44:38.928Z,35.23
2019-03-02T17:47:26.659Z,35.03
2019-03-02T17:50:19.682Z,35.10
2019-03-02T17:53:18.024Z,35.53
2019-03-02T17:56:10.907Z,32.20
2019-03-02T17:58:52.586Z,33.60
2019-03-02T18:01:34.117Z,36.73
2019-03-02T18:04:35.520Z,38.90
2019-03-02T18:07:29.441Z,32.40
2019-03-02T18:10:21.722Z,33.20
2019-03-02T18:13:10.542Z,32.70
2019-03-02T18:16:00.385Z,34.17
2019-03-02T18:18:32.785Z,39.90
2019-03-02T18:21:03.823Z,38.13
2019-03-02T18:23:35.026Z,36.93
2019-03-02T18:26:06.216Z,39.33
2019-03-02T18:28:37.385Z,40.43
2019-03-02T18:31:08.431Z,40.53
2019-03-02T18:33:56.184Z,32.47
2019-03-02T18:36:27.383Z,36.90
2019-03-02T18:38:58.385Z,33.80
2019-03-02T18:41:30.474Z,34.63
2019-03-02T18:44:04.732Z,32.57
2019-03-02T18:46:37.603Z,30.17
2019-03-02T18:49:30.264Z,32.37
2019-03-02T18:52:26.084Z,34.00
2019-03-02T18:54:57.011Z,37.30
2019-03-02T18:57:27.996Z,39.50
2019-03-02T18:59:58.975Z,37.93
2019-03-02T19:02:30.966Z,41.20
2019-03-02T19:05:01.895Z,42.87
2019-03-02T19:07:35.906Z,41.17
2019-03-02T19:10:07.810Z,43.40
2019-03-02T19:12:38.337Z,40.27
2019-03-02T19:15:10.832Z,41.40
2019-03-02T19:17:43.781Z,35.03
2019-03-02T19:20:15.876Z,40.33
2019-03-02T19:22:47.402Z,41.57
2019-03-02T19:25:19.640Z,39.37
2019-03-02T19:27:50.648Z,38.03
2019-03-02T19:30:21.638Z,35.90
2019-03-02T19:32:52.790Z,33.17
2019-03-02T19:35:23.843Z,34.53
2019-03-02T19:37:54.832Z,30.50
2019-03-02T19:40:27.732Z,29.77
2019-03-02T19:42:58.852Z,28.03
2019-03-02T19:45:29.810Z,25.10
2019-03-02T19:48:00.930Z,24.13
2019-03-02T19:50:32.146Z,22.83
2019-03-02T19:53:03.230Z,24.00
2019-03-02T19:55:34.235Z,19.50
2019-03-02T19:58:05.097Z,20.37
2019-03-02T20:00:36.031Z,18.97
2019-03-02T20:03:06.920Z,17.30
2019-03-02T20:05:39.039Z,17.90
2019-03-02T20:08:10.099Z,15.20
2019-03-02T20:10:41.029Z,23.30
2019-03-02T20:13:12.046Z,16.23
2019-03-02T20:15:43.781Z,16.13
2019-03-02T20:18:14.695Z,17.87
2019-03-02T20:20:48.411Z,16.17
2019-03-02T20:23:20.410Z,16.07
2019-03-02T20:25:51.405Z,15.37
2019-03-02T20:28:22.448Z,15.33
2019-03-02T20:30:53.522Z,17.43
2019-03-02T20:33:24.486Z,13.37
2019-03-02T20:35:55.625Z,15.37
2019-03-02T20:38:28.429Z,17.67
2019-03-02T20:40:59.367Z,12.37
2019-03-02T20:43:30.466Z,14.07
2019-03-02T20:46:01.541Z,18.83
2019-03-02T20:48:33.709Z,12.57
2019-03-02T20:51:06.046Z,16.00
2019-03-02T20:53:38.674Z,13.60
2019-03-02T20:56:10.605Z,14.77
2019-03-02T20:58:43.030Z,13.83
2019-03-02T21:01:14.136Z,12.53
2019-03-02T21:03:45.176Z,12.63
2019-03-02T21:06:16.163Z,11.53
2019-03-02T21:08:47.173Z,13.30
2019-03-02T21:11:18.300Z,10.67
2019-03-02T21:13:49.352Z,10.17
2019-03-02T21:16:20.395Z,13.53
2019-03-02T21:18:51.278Z,9.10
2019-03-02T21:21:22.110Z,9.33
2019-03-02T21:23:53.051Z,11.47
2019-03-02T21:26:24.064Z,9.67
2019-03-02T21:28:54.989Z,8.47
2019-03-02T21:31:25.888Z,10.07
2019-03-02T21:33:56.773Z,9.73
2019-03-02T21:36:30.666Z,9.10
2019-03-02T21:39:06.109Z,7.90
2019-03-02T21:41:38.660Z,8.77
2019-03-02T21:44:10.572Z,9.10
2019-03-02T21:46:41.579Z,5.30
2019-03-02T21:49:12.846Z,6.63
2019-03-02T21:51:43.906Z,6.40
2019-03-02T21:54:14.844Z,6.70
2019-03-02T21:56:45.921Z,9.90
2019-03-02T21:59:16.757Z,8.10
2019-03-02T22:01:47.672Z,6.93
2019-03-02T22:04:18.751Z,7.13
2019-03-02T22:06:50.903Z,9.93
2019-03-02T22:09:22.025Z,5.10
2019-03-02T22:11:53.080Z,8.90
2019-03-02T22:14:24.057Z,6.30
2019-03-02T22:16:57.936Z,6.07
2019-03-02T22:19:28.738Z,8.37
2019-03-02T22:21:59.709Z,6.87
2019-03-02T22:24:31.196Z,8.07
2019-03-02T22:27:02.124Z,5.30
2019-03-02T22:29:32.981Z,5.90
2019-03-02T22:32:03.863Z,8.67
2019-03-02T22:34:34.800Z,8.47
2019-03-02T22:37:05.823Z,5.43
2019-03-02T22:39:36.697Z,12.33
2019-03-02T22:42:07.571Z,7.57
2019-03-02T22:44:38.399Z,7.70
2019-03-02T22:47:09.250Z,5.60
2019-03-02T22:49:41.104Z,5.53
2019-03-02T22:52:11.926Z,6.03
2019-03-02T22:54:42.833Z,5.80
2019-03-02T22:57:13.620Z,5.40
2019-03-02T23:00:37.704Z,6.10
2019-03-02T23:03:08.413Z,6.47
2019-03-02T23:05:39.406Z,11.20
2019-03-02T23:08:10.272Z,7.73
2019-03-02T23:10:41.231Z,6.03
2019-03-02T23:13:12.224Z,7.27
2019-03-02T23:15:43.126Z,8.10
2019-03-02T23:18:14.114Z,11.73
2019-03-02T23:20:45.070Z,7.97
2019-03-02T23:23:15.987Z,9.63
2019-03-02T23:25:47.968Z,8.17
2019-03-02T23:28:18.933Z,11.33
2019-03-02T23:30:50.070Z,9.63
2019-03-02T23:33:22.563Z,8.50
2019-03-02T23:35:53.506Z,12.97
2019-03-02T23:38:24.331Z,9.27
2019-03-02T23:40:55.293Z,11.23
2019-03-02T23:43:26.178Z,9.40
2019-03-02T23:45:57.005Z,17.87
2019-03-02T23:48:27.869Z,15.10
2019-03-02T23:50:59.992Z,14.40
2019-03-02T23:53:30.895Z,13.33
2019-03-02T23:56:01.755Z,11.90
2019-03-02T23:58:32.648Z,11.57
